SDM992 UIII-UNKL
Flight info
| Callsign | SDM992 |
|---|---|
| Flight time | N/A |
| Altitude | 34000 |
| Route | BOGRA4C BOGRA A815 TUTEK A91 SUKOR W176 TISBU A311 LALOM LALOM2S |
| Aircraft | B739/M-SDE2E3FGHIRWXY/LB1 |
Departure
| Time | 2026-04-27 12:33 |
|---|---|
| Airport | Irkutsk International Airport (UIII) |
Arrival
| Time | N/A |
|---|---|
| Airport | Krasnoyarsk International Airport (UNKL) |
| Time | Latitude | Longitude | Altitude | Speed | Heading |
|---|---|---|---|---|---|
| 2026-04-27 11:59 | 52.27115 | 104.36790 | 1628 ft | 0 kts | 199° |
| 2026-04-27 12:23 | 52.27098 | 104.36778 | 1631 ft | 4 kts | 204° |
| 2026-04-27 12:23 | 52.27074 | 104.36758 | 1631 ft | 4 kts | 208° |
| 2026-04-27 12:23 | 52.27062 | 104.36748 | 1631 ft | 4 kts | 228° |
| 2026-04-27 12:23 | 52.27070 | 104.36774 | 1629 ft | 2 kts | 289° |
| 2026-04-27 12:24 | 52.27078 | 104.36738 | 1628 ft | 0 kts | 110° |
| 2026-04-27 12:27 | 52.27073 | 104.36761 | 1630 ft | 4 kts | 110° |
| 2026-04-27 12:27 | 52.27055 | 104.36839 | 1630 ft | 10 kts | 110° |
| 2026-04-27 12:28 | 52.27025 | 104.36971 | 1633 ft | 14 kts | 111° |
| 2026-04-27 12:28 | 52.26987 | 104.37146 | 1630 ft | 18 kts | 102° |
| 2026-04-27 12:28 | 52.27024 | 104.37274 | 1630 ft | 14 kts | 53° |
| 2026-04-27 12:28 | 52.27089 | 104.37421 | 1628 ft | 11 kts | 54° |
| 2026-04-27 12:29 | 52.27101 | 104.37449 | 1632 ft | 0 kts | 54° |
| 2026-04-27 12:30 | 52.27105 | 104.37458 | 1631 ft | 3 kts | 54° |
| 2026-04-27 12:30 | 52.27127 | 104.37508 | 1630 ft | 7 kts | 54° |
| 2026-04-27 12:30 | 52.27163 | 104.37590 | 1630 ft | 11 kts | 55° |
| 2026-04-27 12:31 | 52.27179 | 104.37716 | 1632 ft | 13 kts | 104° |
| 2026-04-27 12:31 | 52.27173 | 104.37747 | 1632 ft | 0 kts | 111° |
| 2026-04-27 12:32 | 52.27115 | 104.37988 | 1636 ft | 62 kts | 111° |
| 2026-04-27 12:32 | 52.26829 | 104.39044 | 1648 ft | 138 kts | 113° |
| 2026-04-27 12:32 | 52.26348 | 104.40763 | 1773 ft | 188 kts | 116° |
| 2026-04-27 12:33 | 52.25739 | 104.42780 | 2425 ft | 210 kts | 112° |
| 2026-04-27 12:33 | 52.25730 | 104.45244 | 3249 ft | 235 kts | 79° |
| 2026-04-27 12:33 | 52.26632 | 104.47645 | 3942 ft | 267 kts | 42° |
| 2026-04-27 12:33 | 52.28344 | 104.48941 | 4888 ft | 268 kts | 15° |
| 2026-04-27 12:34 | 52.30031 | 104.49531 | 5614 ft | 227 kts | 12° |
| 2026-04-27 12:34 | 52.31466 | 104.50055 | 6001 ft | 199 kts | 14° |
| 2026-04-27 12:34 | 52.32795 | 104.50639 | 6540 ft | 201 kts | 15° |
| 2026-04-27 12:34 | 52.34116 | 104.51306 | 7232 ft | 196 kts | 17° |
| 2026-04-27 12:35 | 52.35414 | 104.52022 | 7736 ft | 204 kts | 18° |
| 2026-04-27 12:35 | 52.36908 | 104.52904 | 7504 ft | 253 kts | 19° |
| 2026-04-27 12:35 | 52.38642 | 104.53975 | 7802 ft | 273 kts | 20° |
| 2026-04-27 12:35 | 52.40425 | 104.55124 | 8626 ft | 275 kts | 20° |
| 2026-04-27 12:36 | 52.42209 | 104.56309 | 9031 ft | 276 kts | 21° |
| 2026-04-27 12:36 | 52.43995 | 104.57519 | 9153 ft | 281 kts | 21° |
| 2026-04-27 12:36 | 52.45807 | 104.58755 | 9156 ft | 281 kts | 21° |
| 2026-04-27 12:36 | 52.47598 | 104.59982 | 9162 ft | 278 kts | 21° |
| 2026-04-27 12:37 | 52.49445 | 104.60791 | 9164 ft | 274 kts | 1° |
| 2026-04-27 12:37 | 52.51311 | 104.60349 | 9187 ft | 272 kts | 342° |
| 2026-04-27 12:37 | 52.53093 | 104.59289 | 9168 ft | 271 kts | 339° |
| 2026-04-27 12:37 | 52.54858 | 104.58156 | 9168 ft | 273 kts | 338° |
| 2026-04-27 12:38 | 52.56603 | 104.57031 | 9152 ft | 272 kts | 339° |
| 2026-04-27 12:38 | 52.58367 | 104.55897 | 9167 ft | 273 kts | 339° |
| 2026-04-27 12:38 | 52.60141 | 104.54764 | 9160 ft | 274 kts | 339° |
| 2026-04-27 12:38 | 52.61918 | 104.53636 | 9166 ft | 274 kts | 339° |
| 2026-04-27 12:39 | 52.63701 | 104.52508 | 9167 ft | 275 kts | 339° |
| 2026-04-27 12:39 | 52.65488 | 104.51376 | 9166 ft | 276 kts | 339° |
| 2026-04-27 12:39 | 52.67284 | 104.50246 | 9188 ft | 276 kts | 339° |
| 2026-04-27 12:39 | 52.69076 | 104.49119 | 9166 ft | 276 kts | 339° |
| 2026-04-27 12:40 | 52.70879 | 104.47973 | 9169 ft | 278 kts | 339° |
| 2026-04-27 12:40 | 52.72689 | 104.46826 | 9159 ft | 278 kts | 339° |
| 2026-04-27 12:40 | 52.74477 | 104.45643 | 9160 ft | 277 kts | 332° |
| 2026-04-27 12:40 | 52.75991 | 104.43685 | 9180 ft | 278 kts | 315° |
| 2026-04-27 12:41 | 52.77347 | 104.41406 | 9156 ft | 279 kts | 315° |
| 2026-04-27 12:41 | 52.78714 | 104.39118 | 9148 ft | 280 kts | 315° |
| 2026-04-27 12:41 | 52.80082 | 104.36846 | 9154 ft | 280 kts | 315° |
| 2026-04-27 12:41 | 52.81453 | 104.34568 | 9144 ft | 278 kts | 315° |
| 2026-04-27 12:42 | 52.82822 | 104.32302 | 9386 ft | 278 kts | 315° |
| 2026-04-27 12:42 | 52.84190 | 104.30035 | 10194 ft | 279 kts | 315° |
| 2026-04-27 12:42 | 52.85582 | 104.27719 | 10673 ft | 294 kts | 315° |
| 2026-04-27 12:42 | 52.87086 | 104.25230 | 10843 ft | 318 kts | 315° |
| 2026-04-27 12:43 | 52.88696 | 104.22561 | 11153 ft | 336 kts | 315° |
| 2026-04-27 12:43 | 52.90360 | 104.19794 | 11783 ft | 341 kts | 315° |
| 2026-04-27 12:43 | 52.92043 | 104.16994 | 12540 ft | 344 kts | 315° |
| 2026-04-27 12:43 | 52.93737 | 104.14175 | 13246 ft | 347 kts | 315° |
| 2026-04-27 12:44 | 52.95450 | 104.11319 | 13938 ft | 351 kts | 315° |
| 2026-04-27 12:44 | 52.97178 | 104.08428 | 14588 ft | 355 kts | 315° |
| 2026-04-27 12:44 | 52.98903 | 104.05547 | 15236 ft | 358 kts | 315° |
| 2026-04-27 12:44 | 53.00662 | 104.02603 | 15870 ft | 361 kts | 315° |
| 2026-04-27 12:45 | 53.02438 | 103.99629 | 16484 ft | 364 kts | 315° |
| 2026-04-27 12:45 | 53.04228 | 103.96626 | 17091 ft | 368 kts | 315° |
| 2026-04-27 12:45 | 53.06041 | 103.93580 | 17693 ft | 371 kts | 315° |
| 2026-04-27 12:45 | 53.07865 | 103.90514 | 18301 ft | 375 kts | 315° |
| 2026-04-27 12:46 | 53.09712 | 103.87404 | 18826 ft | 378 kts | 315° |
| 2026-04-27 12:46 | 53.11570 | 103.84271 | 19364 ft | 381 kts | 315° |
| 2026-04-27 12:46 | 53.13438 | 103.81115 | 19896 ft | 384 kts | 315° |
| 2026-04-27 12:46 | 53.15410 | 103.78094 | 20413 ft | 387 kts | 326° |
| 2026-04-27 12:47 | 53.17786 | 103.75985 | 20928 ft | 388 kts | 335° |
| 2026-04-27 12:47 | 53.20255 | 103.74115 | 21450 ft | 391 kts | 336° |
| 2026-04-27 12:47 | 53.22749 | 103.72240 | 21952 ft | 394 kts | 336° |
| 2026-04-27 12:47 | 53.25223 | 103.70361 | 22453 ft | 397 kts | 336° |
| 2026-04-27 12:48 | 53.27741 | 103.68424 | 22963 ft | 400 kts | 335° |
| 2026-04-27 12:48 | 53.30278 | 103.66452 | 23464 ft | 403 kts | 335° |
| 2026-04-27 12:48 | 53.32826 | 103.64458 | 23916 ft | 406 kts | 335° |
| 2026-04-27 12:48 | 53.35391 | 103.62444 | 24344 ft | 408 kts | 335° |
| 2026-04-27 12:49 | 53.37964 | 103.60419 | 24784 ft | 409 kts | 335° |
| 2026-04-27 12:49 | 53.40546 | 103.58384 | 25219 ft | 411 kts | 335° |
| 2026-04-27 12:49 | 53.43145 | 103.56335 | 25647 ft | 413 kts | 335° |
| 2026-04-27 12:49 | 53.45750 | 103.54278 | 26069 ft | 415 kts | 335° |
| 2026-04-27 12:50 | 53.48322 | 103.52045 | 26468 ft | 418 kts | 328° |
| 2026-04-27 12:50 | 53.50608 | 103.49019 | 26849 ft | 421 kts | 317° |
| 2026-04-27 12:50 | 53.52571 | 103.45342 | 27262 ft | 425 kts | 308° |
| 2026-04-27 12:50 | 53.54140 | 103.41102 | 27640 ft | 429 kts | 302° |
| 2026-04-27 12:51 | 53.55605 | 103.36707 | 28014 ft | 431 kts | 301° |
| 2026-04-27 12:51 | 53.57054 | 103.32268 | 28377 ft | 433 kts | 301° |
| 2026-04-27 12:51 | 53.58508 | 103.27820 | 28768 ft | 435 kts | 301° |
| 2026-04-27 12:51 | 53.59970 | 103.23377 | 29287 ft | 433 kts | 302° |
| 2026-04-27 12:52 | 53.61434 | 103.18963 | 29889 ft | 429 kts | 302° |
| 2026-04-27 12:52 | 53.62891 | 103.14589 | 30406 ft | 427 kts | 302° |
| 2026-04-27 12:52 | 53.64322 | 103.10300 | 30816 ft | 425 kts | 302° |
| 2026-04-27 12:52 | 53.65767 | 103.05969 | 31271 ft | 423 kts | 303° |
| 2026-04-27 12:53 | 53.68629 | 102.97373 | 32163 ft | 417 kts | 303° |
| 2026-04-27 12:53 | 53.70045 | 102.93107 | 32564 ft | 416 kts | 303° |
| 2026-04-27 12:53 | 53.71453 | 102.88857 | 32944 ft | 414 kts | 303° |
| 2026-04-27 12:54 | 53.72854 | 102.84620 | 33357 ft | 412 kts | 303° |
| 2026-04-27 12:54 | 53.74246 | 102.80405 | 33767 ft | 410 kts | 303° |
| 2026-04-27 12:54 | 53.75629 | 102.76207 | 34099 ft | 409 kts | 304° |
| 2026-04-27 12:54 | 53.77025 | 102.71970 | 34104 ft | 413 kts | 304° |
| 2026-04-27 12:55 | 53.79779 | 102.63577 | 34113 ft | 409 kts | 303° |
| 2026-04-27 12:55 | 53.82529 | 102.55176 | 34121 ft | 406 kts | 303° |
| 2026-04-27 12:56 | 53.85256 | 102.46833 | 34132 ft | 404 kts | 303° |
| 2026-04-27 12:56 | 53.87529 | 102.39856 | 34126 ft | 404 kts | 303° |
| 2026-04-27 12:57 | 53.90224 | 102.31560 | 34121 ft | 404 kts | 303° |
| 2026-04-27 12:57 | 53.92931 | 102.23193 | 34119 ft | 405 kts | 303° |